CheckWX is a tool to help pilots better visualize weather data.  It is not intended as a substitute for an official pre-flight weather briefing.

05:38:49 UTC

KFFL METAR
Fairfield Municipal Airport
Fairfield, Iowa, USA
Current

24 mins ago

KFFL 040515Z AUTO 03004KT 8SM CLR 21/21 A3003 RMK A01
Observed
Jul-4 @ 05:15 UTC
Wind
  • 030° at 4 KTS
Visibility
8 SM
Flight Rules
VFR
Cloud Levels
  • Clear skies
Temperature
21°C / 70°F
Dewpoint
21°C / 70°F
Humidity
100%
Altimeter
30.03" Hg
Pressure
1016.92 hPa
Previous

44 mins ago

KFFL 040455Z AUTO 00000KT 10SM CLR 21/21 A3004 RMK A01
Observed
Jul-4 @ 04:55 UTC
Visibility
10 SM
Flight Rules
VFR
Cloud Levels
  • Clear skies
Temperature
21°C / 70°F
Dewpoint
21°C / 70°F
Humidity
100%
Altimeter
30.04" Hg
Pressure
1017.32 hPa
Previous

1 hour ago

KFFL 040435Z AUTO 00000KT 10SM CLR 21/21 A3004 RMK A01
Observed
Jul-4 @ 04:35 UTC
Visibility
10 SM
Flight Rules
VFR
Cloud Levels
  • Clear skies
Temperature
21°C / 70°F
Dewpoint
21°C / 70°F
Humidity
100%
Altimeter
30.04" Hg
Pressure
1017.32 hPa